createdAt,value
2022-11-05T00:01:48.728Z,97348.16
2022-11-05T00:04:34.505Z,97342.88
2022-11-05T00:07:25.637Z,97341.06
2022-11-05T00:09:58.867Z,97353.38
2022-11-05T00:12:44.434Z,97350.59
2022-11-05T00:15:31.106Z,97362.66
2022-11-05T00:17:59.083Z,97354.31
2022-11-05T00:20:27.192Z,97354.25
2022-11-05T00:23:18.950Z,97352.22
2022-11-05T00:25:55.161Z,97352.97
2022-11-05T00:28:23.175Z,97355.31
2022-11-05T00:30:53.713Z,97363.03
2022-11-05T00:33:21.896Z,97370.22
2022-11-05T00:35:49.861Z,97359.13
2022-11-05T00:38:17.806Z,97368.28
2022-11-05T00:40:46.261Z,97363.63
2022-11-05T00:43:31.669Z,97367.66
2022-11-05T00:46:01.030Z,97355.94
2022-11-05T00:48:46.543Z,97351.88
2022-11-05T00:51:14.627Z,97341.22
2022-11-05T00:53:42.684Z,97339.81
2022-11-05T00:56:10.781Z,97345.59
2022-11-05T00:58:38.747Z,97345.31
2022-11-05T01:01:08.307Z,97346.28
2022-11-05T01:03:38.215Z,97339.44
2022-11-05T01:06:11.647Z,97353.50
2022-11-05T01:08:40.297Z,97354.47
2022-11-05T01:11:13.174Z,97360.56
2022-11-05T01:13:41.541Z,97365.53
2022-11-05T01:16:11.835Z,97364.13
2022-11-05T01:18:40.254Z,97362.34
2022-11-05T01:21:12.479Z,97362.41
2022-11-05T01:23:40.489Z,97369.31
2022-11-05T01:26:08.482Z,97367.59
2022-11-05T01:28:36.501Z,97371.41
2022-11-05T01:31:04.626Z,97382.19
2022-11-05T01:33:34.073Z,97384.56
2022-11-05T01:36:02.013Z,97392.22
2022-11-05T01:38:30.032Z,97390.69
2022-11-05T01:40:58.021Z,97399.56
2022-11-05T01:43:26.047Z,97384.88
2022-11-05T01:45:57.591Z,97381.13
2022-11-05T01:48:30.810Z,97379.72
2022-11-05T01:51:04.762Z,97391.25
2022-11-05T01:53:38.035Z,97393.94
2022-11-05T01:56:10.460Z,97400.84
2022-11-05T01:58:43.690Z,97410.97
2022-11-05T02:01:12.780Z,97409.63
2022-11-05T02:03:41.916Z,97409.75
2022-11-05T02:06:12.749Z,97414.50
2022-11-05T02:08:53.137Z,97418.75
2022-11-05T02:11:21.729Z,97417.41
2022-11-05T02:13:50.570Z,97425.09
2022-11-05T02:16:29.513Z,97421.00
2022-11-05T02:19:08.469Z,97427.59
2022-11-05T02:22:06.450Z,97432.22
2022-11-05T02:24:57.961Z,97438.78
2022-11-05T02:28:08.213Z,97440.28
2022-11-05T02:30:46.938Z,97439.44
2022-11-05T02:33:33.564Z,97445.13
2022-11-05T02:36:29.785Z,97451.56
2022-11-05T02:39:09.626Z,97447.31
2022-11-05T02:41:48.916Z,97447.66
2022-11-05T02:44:28.101Z,97452.31
2022-11-05T02:47:05.713Z,97459.84
2022-11-05T02:49:42.431Z,97468.94
2022-11-05T02:52:17.385Z,97471.41
2022-11-05T02:54:50.886Z,97481.25
2022-11-05T02:57:20.703Z,97487.50
2022-11-05T02:59:48.739Z,97504.34
2022-11-05T03:02:18.203Z,97501.09
2022-11-05T03:04:46.422Z,97512.63
2022-11-05T03:07:31.993Z,97515.38
2022-11-05T03:10:19.015Z,97519.66
2022-11-05T03:12:58.226Z,97520.59
2022-11-05T03:15:46.964Z,97532.16
2022-11-05T03:18:20.098Z,97537.00
2022-11-05T03:20:51.888Z,97547.59
2022-11-05T03:23:28.812Z,97557.06
2022-11-05T03:26:02.426Z,97547.69
2022-11-05T03:28:35.712Z,97552.66
2022-11-05T03:31:05.631Z,97551.66
2022-11-05T03:33:37.800Z,97542.88
2022-11-05T03:36:13.995Z,97554.56
2022-11-05T03:38:47.198Z,97550.28
2022-11-05T03:41:17.305Z,97561.06
2022-11-05T03:43:50.482Z,97568.72
2022-11-05T03:46:21.699Z,97577.22
2022-11-05T03:48:55.376Z,97574.25
2022-11-05T03:51:33.549Z,97575.91
2022-11-05T03:54:04.201Z,97577.94
2022-11-05T03:56:37.283Z,97576.59
2022-11-05T03:59:07.602Z,97583.63
2022-11-05T04:01:38.147Z,97587.28
2022-11-05T04:04:08.662Z,97579.97
2022-11-05T04:06:54.405Z,97589.31
2022-11-05T04:09:40.095Z,97604.97
2022-11-05T04:12:27.392Z,97600.97
2022-11-05T04:14:55.445Z,97612.06
2022-11-05T04:17:22.611Z,97610.06
2022-11-05T04:20:09.641Z,97607.34
2022-11-05T04:22:55.473Z,97601.31
2022-11-05T04:25:23.878Z,97604.13
2022-11-05T04:27:52.325Z,97599.78
2022-11-05T04:30:20.338Z,97615.06
2022-11-05T04:33:03.326Z,97599.28
2022-11-05T04:35:34.828Z,97596.94
2022-11-05T04:38:03.098Z,97598.06
2022-11-05T04:40:31.219Z,97616.00
2022-11-05T04:42:59.230Z,97607.47
2022-11-05T04:45:29.809Z,97596.72
2022-11-05T04:47:57.997Z,97602.13
2022-11-05T04:50:25.926Z,97616.03
2022-11-05T04:52:55.269Z,97606.41
2022-11-05T04:55:23.337Z,97605.19
2022-11-05T04:57:52.514Z,97611.94
2022-11-05T05:00:22.084Z,97616.97
2022-11-05T05:02:50.349Z,97613.16
2022-11-05T05:05:18.440Z,97619.75
2022-11-05T05:07:46.466Z,97624.72
2022-11-05T05:10:15.869Z,97629.09
2022-11-05T05:12:43.910Z,97628.63
2022-11-05T05:15:11.908Z,97638.53
2022-11-05T05:17:39.913Z,97637.41
2022-11-05T05:20:25.967Z,97643.50
2022-11-05T05:22:54.279Z,97649.41
2022-11-05T05:25:24.414Z,97646.88
2022-11-05T05:27:52.578Z,97641.84
2022-11-05T05:30:20.660Z,97657.16
2022-11-05T05:32:48.711Z,97657.13
2022-11-05T05:35:17.027Z,97655.81
2022-11-05T05:37:45.613Z,97655.50
2022-11-05T05:40:13.627Z,97652.19
2022-11-05T05:42:43.663Z,97654.06
2022-11-05T05:45:12.887Z,97655.34
2022-11-05T05:47:40.907Z,97660.47
2022-11-05T05:50:09.360Z,97663.75
2022-11-05T05:52:37.369Z,97668.03
2022-11-05T05:55:05.920Z,97683.38
2022-11-05T05:57:35.098Z,97691.31
2022-11-05T06:00:05.685Z,97690.47
2022-11-05T06:02:40.080Z,97701.84
2022-11-05T06:05:08.628Z,97694.97
2022-11-05T06:07:37.619Z,97704.81
2022-11-05T06:10:07.437Z,97706.38
2022-11-05T06:12:35.421Z,97711.72
2022-11-05T06:15:05.387Z,97722.97
2022-11-05T06:17:34.379Z,97724.06
2022-11-05T06:20:02.477Z,97732.22
2022-11-05T06:22:30.500Z,97728.59
2022-11-05T06:24:58.697Z,97727.06
2022-11-05T06:27:26.731Z,97734.06
2022-11-05T06:29:54.724Z,97736.38
2022-11-05T06:32:24.241Z,97746.19
2022-11-05T06:34:52.241Z,97747.50
2022-11-05T06:37:20.340Z,97748.25
2022-11-05T06:39:48.381Z,97756.03
2022-11-05T06:42:18.992Z,97757.44
2022-11-05T06:44:47.770Z,97761.13
2022-11-05T06:47:15.798Z,97759.88
2022-11-05T06:49:45.181Z,97768.63
2022-11-05T06:52:14.073Z,97761.13
2022-11-05T06:54:42.818Z,97764.72
2022-11-05T06:57:12.146Z,97774.38
2022-11-05T06:59:40.830Z,97769.56
2022-11-05T07:02:12.813Z,97774.56
2022-11-05T07:04:40.868Z,97777.09
2022-11-05T07:07:10.357Z,97777.09
2022-11-05T07:09:40.594Z,97778.09
2022-11-05T07:12:08.982Z,97782.13
2022-11-05T07:14:36.971Z,97788.41
2022-11-05T07:17:05.309Z,97797.00
2022-11-05T07:19:33.363Z,97798.13
2022-11-05T07:22:01.369Z,97799.56
2022-11-05T07:24:30.755Z,97817.41
2022-11-05T07:26:58.698Z,97808.78
2022-11-05T07:29:26.799Z,97819.53
2022-11-05T07:31:54.804Z,97819.81
2022-11-05T07:34:22.773Z,97817.41
2022-11-05T07:36:50.738Z,97818.94
2022-11-05T07:39:18.688Z,97824.59
2022-11-05T07:41:48.078Z,97819.28
2022-11-05T07:44:17.636Z,97819.31
2022-11-05T07:46:45.761Z,97821.69
2022-11-05T07:49:13.726Z,97825.31
2022-11-05T07:51:41.757Z,97824.25
2022-11-05T07:54:09.719Z,97837.19
2022-11-05T07:56:38.010Z,97825.31
2022-11-05T07:59:07.741Z,97826.81
2022-11-05T08:01:35.834Z,97828.50
2022-11-05T08:04:03.995Z,97822.06
2022-11-05T08:06:32.806Z,97830.81
2022-11-05T08:09:01.047Z,97828.16
2022-11-05T08:11:29.108Z,97839.28
2022-11-05T08:13:57.184Z,97837.38
2022-11-05T08:16:26.611Z,97837.47
2022-11-05T08:18:54.638Z,97834.06
2022-11-05T08:21:22.688Z,97825.38
2022-11-05T08:23:50.720Z,97838.34
2022-11-05T08:26:19.551Z,97835.53
2022-11-05T08:28:47.541Z,97842.00
2022-11-05T08:31:17.819Z,97849.56
2022-11-05T08:33:47.116Z,97853.69
2022-11-05T08:36:15.124Z,97854.31
2022-11-05T08:38:43.262Z,97863.38
2022-11-05T08:41:11.274Z,97859.13
2022-11-05T08:43:39.256Z,97845.56
2022-11-05T08:46:07.446Z,97859.31
2022-11-05T08:48:35.522Z,97866.06
2022-11-05T08:51:05.096Z,97867.81
2022-11-05T08:53:33.121Z,97877.22
2022-11-05T08:56:01.142Z,97874.75
2022-11-05T08:58:30.358Z,97869.69
2022-11-05T09:01:04.403Z,97874.84
2022-11-05T09:03:33.079Z,97869.34
2022-11-05T09:06:01.056Z,97878.81
2022-11-05T09:08:30.521Z,97883.44
2022-11-05T09:10:58.518Z,97883.38
2022-11-05T09:13:27.171Z,97885.31
2022-11-05T09:15:55.339Z,97885.84
2022-11-05T09:18:23.408Z,97896.69
2022-11-05T09:20:51.360Z,97898.63
2022-11-05T09:23:19.501Z,97904.38
2022-11-05T09:25:49.407Z,97907.91
2022-11-05T09:28:20.371Z,97905.53
2022-11-05T09:30:50.728Z,97908.84
2022-11-05T09:33:20.568Z,97915.47
2022-11-05T09:35:48.599Z,97918.69
2022-11-05T09:38:16.849Z,97919.09
2022-11-05T09:40:53.289Z,97925.47
2022-11-05T09:43:31.257Z,97922.69
2022-11-05T09:46:03.820Z,97921.59
2022-11-05T09:48:34.495Z,97923.00
2022-11-05T09:51:02.672Z,97926.97
2022-11-05T09:53:30.719Z,97926.41
2022-11-05T09:56:02.156Z,97936.22
2022-11-05T09:58:38.977Z,97931.31
2022-11-05T10:01:12.456Z,97932.56
2022-11-05T10:03:46.836Z,97931.97
2022-11-05T10:06:20.901Z,97932.59
2022-11-05T10:08:52.829Z,97935.38
2022-11-05T10:11:27.191Z,97943.78
2022-11-05T10:14:00.402Z,97936.50
2022-11-05T10:16:34.603Z,97947.22
2022-11-05T10:19:09.928Z,97944.19
2022-11-05T10:22:04.940Z,97938.88
2022-11-05T10:24:26.951Z,97946.38
2022-11-05T10:26:57.445Z,97945.97
2022-11-05T10:29:30.484Z,97940.81
2022-11-05T10:32:00.587Z,97940.41
2022-11-05T10:34:32.123Z,97940.72
2022-11-05T10:37:00.196Z,97946.44
2022-11-05T10:39:28.781Z,97945.94
2022-11-05T10:42:11.550Z,97947.78
2022-11-05T10:44:45.316Z,97950.25
2022-11-05T10:47:36.384Z,97955.91
2022-11-05T10:50:09.957Z,97960.53
2022-11-05T10:52:41.129Z,97964.00
2022-11-05T10:55:18.201Z,97962.22
2022-11-05T10:57:49.482Z,97957.59
2022-11-05T11:00:28.322Z,97958.44
2022-11-05T11:02:59.320Z,97957.47
2022-11-05T11:05:31.272Z,97963.97
2022-11-05T11:08:05.431Z,97967.06
2022-11-05T11:10:42.550Z,97980.59
2022-11-05T11:13:22.375Z,97968.84
2022-11-05T11:15:51.233Z,97973.38
2022-11-05T11:18:29.231Z,97977.47
2022-11-05T11:21:07.816Z,97977.00
2022-11-05T11:23:40.961Z,97981.75
2022-11-05T11:26:10.253Z,97979.66
2022-11-05T11:28:44.882Z,97981.38
2022-11-05T11:31:16.412Z,97994.75
2022-11-05T11:33:49.214Z,97985.25
2022-11-05T11:36:20.555Z,97977.63
2022-11-05T11:38:48.930Z,97986.63
2022-11-05T11:41:26.801Z,97981.97
2022-11-05T11:44:00.719Z,97993.50
2022-11-05T11:46:33.954Z,97986.06
2022-11-05T11:49:02.161Z,97990.47
2022-11-05T11:51:35.163Z,97991.59
2022-11-05T11:54:04.258Z,97999.16
2022-11-05T11:56:44.629Z,97990.34
2022-11-05T11:59:40.479Z,97997.06
2022-11-05T12:02:35.457Z,97999.59
2022-11-05T12:05:24.324Z,98003.94
2022-11-05T12:07:54.514Z,98001.75
2022-11-05T12:10:35.327Z,98003.34
2022-11-05T12:13:30.792Z,98005.81
2022-11-05T12:16:08.883Z,98010.66
2022-11-05T12:18:48.866Z,98018.69
2022-11-05T12:21:41.066Z,98012.16
2022-11-05T12:24:30.041Z,98012.69
2022-11-05T12:27:13.449Z,98013.28
2022-11-05T12:29:52.322Z,98022.66
2022-11-05T12:32:48.975Z,98029.34
2022-11-05T12:35:35.854Z,98025.56
2022-11-05T12:38:12.151Z,98021.00
2022-11-05T12:41:07.029Z,98030.06
2022-11-05T12:43:43.481Z,98037.84
2022-11-05T12:46:30.385Z,98029.47
2022-11-05T12:49:22.116Z,98031.47
2022-11-05T12:52:01.638Z,98031.78
2022-11-05T12:54:42.000Z,98028.63
2022-11-05T12:57:13.395Z,98032.44
2022-11-05T12:59:44.825Z,98036.53
2022-11-05T13:02:22.217Z,98029.66
2022-11-05T13:04:55.442Z,98040.03
2022-11-05T13:07:29.236Z,98038.84
2022-11-05T13:10:02.326Z,98032.34
2022-11-05T13:12:34.706Z,98047.69
2022-11-05T13:15:07.914Z,98038.09
2022-11-05T13:17:52.806Z,98048.78
2022-11-05T13:20:23.981Z,98046.38
2022-11-05T13:22:56.665Z,98041.78
2022-11-05T13:25:26.782Z,98055.22
2022-11-05T13:28:02.963Z,98055.34
2022-11-05T13:30:34.806Z,98054.56
2022-11-05T13:33:07.059Z,98061.88
2022-11-05T13:35:42.740Z,98069.16
2022-11-05T13:38:36.914Z,98065.69
2022-11-05T13:41:21.740Z,98065.69
2022-11-05T13:44:11.531Z,98070.09
2022-11-05T13:46:56.768Z,98078.63
2022-11-05T13:49:55.414Z,98082.81
2022-11-05T13:52:40.652Z,98069.53
2022-11-05T13:55:27.304Z,98074.56
2022-11-05T13:58:42.849Z,98082.28
2022-11-05T14:01:21.138Z,98082.50
2022-11-05T14:03:51.569Z,98086.31
2022-11-05T14:06:26.434Z,98088.97
2022-11-05T14:08:59.270Z,98095.53
2022-11-05T14:11:30.436Z,98097.38
2022-11-05T14:14:02.543Z,98098.88
2022-11-05T14:16:49.307Z,98097.16
2022-11-05T14:19:34.470Z,98104.72
2022-11-05T14:22:39.396Z,98116.75
2022-11-05T14:25:43.325Z,98119.97
2022-11-05T14:28:42.526Z,98130.88
2022-11-05T14:32:02.486Z,98137.97
2022-11-05T14:34:24.984Z,98135.19
2022-11-05T14:37:18.870Z,98133.94
2022-11-05T14:39:47.876Z,98139.75
2022-11-05T14:42:21.321Z,98149.28
2022-11-05T14:45:21.300Z,98144.88
2022-11-05T14:47:55.300Z,98141.00
2022-11-05T14:50:31.900Z,98141.56
2022-11-05T14:53:07.991Z,98148.41
2022-11-05T14:55:38.896Z,98149.00
2022-11-05T14:58:26.888Z,98143.75
2022-11-05T15:00:57.434Z,98146.94
2022-11-05T15:03:42.706Z,98153.25
2022-11-05T15:06:29.619Z,98161.19
2022-11-05T15:09:19.363Z,98169.63
2022-11-05T15:11:58.444Z,98164.94
2022-11-05T15:14:31.797Z,98164.63
2022-11-05T15:17:09.447Z,98164.94
2022-11-05T15:19:40.087Z,98170.56
2022-11-05T15:22:19.491Z,98171.09
2022-11-05T15:24:48.937Z,98180.97
2022-11-05T15:27:23.705Z,98172.88
2022-11-05T15:29:51.841Z,98183.84
2022-11-05T15:32:34.612Z,98183.16
2022-11-05T15:35:20.227Z,98187.94
2022-11-05T15:37:54.687Z,98194.84
2022-11-05T15:40:27.863Z,98195.34
2022-11-05T15:43:17.613Z,98201.81
2022-11-05T15:45:59.283Z,98199.69
2022-11-05T15:48:28.718Z,98207.19
2022-11-05T15:50:57.276Z,98207.38
2022-11-05T15:54:02.208Z,98214.41
2022-11-05T15:56:29.829Z,98210.13
2022-11-05T15:59:02.043Z,98215.47
2022-11-05T16:01:32.919Z,98218.78
2022-11-05T16:04:12.739Z,98228.09
2022-11-05T16:06:43.629Z,98219.06
2022-11-05T16:09:22.938Z,98221.66
2022-11-05T16:12:12.299Z,98235.09
2022-11-05T16:14:40.769Z,98236.16
2022-11-05T16:17:19.487Z,98235.19
2022-11-05T16:19:49.838Z,98231.28
2022-11-05T16:22:18.664Z,98232.97
2022-11-05T16:24:47.240Z,98235.97
2022-11-05T16:27:19.615Z,98237.03
2022-11-05T16:29:51.356Z,98231.75
2022-11-05T16:32:29.920Z,98238.25
2022-11-05T16:35:01.924Z,98238.69
2022-11-05T16:37:36.949Z,98243.16
2022-11-05T16:40:14.233Z,98244.63
2022-11-05T16:42:43.383Z,98250.31
2022-11-05T16:45:14.847Z,98262.47
2022-11-05T16:47:44.134Z,98272.31
2022-11-05T16:50:19.703Z,98270.25
2022-11-05T16:52:48.264Z,98274.78
2022-11-05T16:55:17.929Z,98270.16
2022-11-05T16:57:49.337Z,98275.34
2022-11-05T17:00:19.182Z,98280.81
2022-11-05T17:02:47.584Z,98280.38
2022-11-05T17:05:24.149Z,98289.94
2022-11-05T17:07:52.278Z,98281.66
2022-11-05T17:10:21.056Z,98296.03
2022-11-05T17:12:49.442Z,98295.72
2022-11-05T17:15:20.308Z,98292.00
2022-11-05T17:17:49.041Z,98300.38
2022-11-05T17:20:38.292Z,98293.59
2022-11-05T17:23:10.824Z,98302.19
2022-11-05T17:25:40.624Z,98309.31
2022-11-05T17:28:11.232Z,98314.56
2022-11-05T17:30:41.850Z,98324.09
2022-11-05T17:33:11.856Z,98326.31
2022-11-05T17:35:43.219Z,98327.34
2022-11-05T17:38:13.000Z,98326.28
2022-11-05T17:40:42.218Z,98323.56
2022-11-05T17:43:11.786Z,98328.06
2022-11-05T17:45:44.393Z,98329.75
2022-11-05T17:48:12.780Z,98325.09
2022-11-05T17:50:43.195Z,98326.41
2022-11-05T17:53:12.081Z,98323.34
2022-11-05T17:55:41.706Z,98332.16
2022-11-05T17:58:09.795Z,98326.47
2022-11-05T18:00:38.305Z,98325.88
2022-11-05T18:03:06.422Z,98324.38
2022-11-05T18:05:35.726Z,98335.00
2022-11-05T18:08:05.913Z,98319.88
2022-11-05T18:10:33.925Z,98321.75
2022-11-05T18:13:02.018Z,98338.88
2022-11-05T18:15:30.172Z,98337.94
2022-11-05T18:17:58.142Z,98346.06
2022-11-05T18:20:26.148Z,98356.81
2022-11-05T18:22:54.141Z,98342.91
2022-11-05T18:25:23.540Z,98345.59
2022-11-05T18:27:51.542Z,98361.75
2022-11-05T18:30:19.620Z,98352.56
2022-11-05T18:32:48.092Z,98338.09
2022-11-05T18:35:16.093Z,98350.81
2022-11-05T18:37:44.126Z,98351.84
2022-11-05T18:40:13.116Z,98349.88
2022-11-05T18:42:42.931Z,98348.16
2022-11-05T18:45:12.381Z,98347.25
2022-11-05T18:47:40.480Z,98352.75
2022-11-05T18:50:10.575Z,98350.41
2022-11-05T18:52:38.699Z,98353.94
2022-11-05T18:55:08.059Z,98365.19
2022-11-05T18:57:36.122Z,98372.03
2022-11-05T19:00:06.577Z,98376.91
2022-11-05T19:02:35.109Z,98369.63
2022-11-05T19:07:51.478Z,98379.63
2022-11-05T19:10:19.722Z,98385.69
2022-11-05T19:12:47.933Z,98393.41
2022-11-05T19:15:17.353Z,98390.19
2022-11-05T19:17:45.417Z,98392.84
2022-11-05T19:20:13.825Z,98387.88
2022-11-05T19:22:41.886Z,98399.50
2022-11-05T19:25:09.893Z,98401.56
2022-11-05T19:27:38.716Z,98398.38
2022-11-05T19:30:07.675Z,98402.63
2022-11-05T19:32:37.241Z,98410.03
2022-11-05T19:35:05.764Z,98414.63
2022-11-05T19:37:33.792Z,98407.69
2022-11-05T19:40:01.831Z,98423.19
2022-11-05T19:42:29.786Z,98421.09
2022-11-05T19:45:06.829Z,98422.13
2022-11-05T19:47:46.383Z,98420.72
2022-11-05T19:50:14.441Z,98428.91
2022-11-05T19:52:42.434Z,98429.19
2022-11-05T19:55:12.235Z,98439.28
2022-11-05T19:57:40.570Z,98436.91
2022-11-05T20:00:10.038Z,98444.53
2022-11-05T20:02:38.865Z,98443.75
2022-11-05T20:05:08.883Z,98456.78
2022-11-05T20:07:37.038Z,98454.31
2022-11-05T20:10:05.706Z,98464.41
2022-11-05T20:12:34.509Z,98461.91
2022-11-05T20:15:02.576Z,98457.53
2022-11-05T20:17:30.609Z,98462.59
2022-11-05T20:19:58.901Z,98457.81
2022-11-05T20:22:28.813Z,98464.47
2022-11-05T20:24:57.351Z,98470.50
2022-11-05T20:27:25.322Z,98476.41
2022-11-05T20:29:53.293Z,98485.63
2022-11-05T20:32:21.322Z,98493.31
2022-11-05T20:34:49.321Z,98500.34
2022-11-05T20:37:17.385Z,98506.97
2022-11-05T20:39:46.863Z,98502.75
2022-11-05T20:42:14.871Z,98502.09
2022-11-05T20:44:42.788Z,98513.69
2022-11-05T20:47:11.583Z,98517.88
2022-11-05T20:49:39.567Z,98525.44
2022-11-05T20:52:07.625Z,98526.28
2022-11-05T20:54:35.742Z,98529.13
2022-11-05T20:57:05.167Z,98523.56
2022-11-05T20:59:33.487Z,98527.69
2022-11-05T21:02:01.749Z,98523.09
2022-11-05T21:04:29.875Z,98517.16
2022-11-05T21:06:57.917Z,98523.22
2022-11-05T21:09:25.892Z,98520.88
2022-11-05T21:12:11.753Z,98521.19
2022-11-05T21:14:43.308Z,98517.94
2022-11-05T21:17:13.053Z,98512.66
2022-11-05T21:19:41.067Z,98520.78
2022-11-05T21:22:09.188Z,98519.78
2022-11-05T21:24:37.360Z,98517.66
2022-11-05T21:27:05.488Z,98508.84
2022-11-05T21:29:33.664Z,98517.97
2022-11-05T21:32:02.997Z,98524.00
2022-11-05T21:34:30.999Z,98515.38
2022-11-05T21:36:59.327Z,98509.66
2022-11-05T21:39:27.795Z,98515.44
2022-11-05T21:41:55.791Z,98511.22
2022-11-05T21:44:23.829Z,98511.03
2022-11-05T21:46:52.538Z,98514.88
2022-11-05T21:49:22.032Z,98524.13
2022-11-05T21:52:07.605Z,98528.50
2022-11-05T21:54:53.113Z,98526.56
2022-11-05T21:57:39.313Z,98529.06
2022-11-05T22:00:09.437Z,98527.75
2022-11-05T22:02:38.089Z,98525.53
2022-11-05T22:05:08.914Z,98522.47
2022-11-05T22:07:40.031Z,98540.50
2022-11-05T22:10:14.860Z,98531.03
2022-11-05T22:12:44.685Z,98536.06
2022-11-05T22:15:13.168Z,98535.78
2022-11-05T22:17:46.223Z,98544.13
2022-11-05T22:20:16.686Z,98543.47
2022-11-05T22:22:44.808Z,98540.88
2022-11-05T22:25:14.375Z,98548.41
2022-11-05T22:27:43.945Z,98540.47
2022-11-05T22:30:13.757Z,98545.75
2022-11-05T22:32:41.931Z,98546.66
2022-11-05T22:35:10.739Z,98545.16
2022-11-05T22:37:40.174Z,98553.56
2022-11-05T22:40:09.708Z,98543.28
2022-11-05T22:42:37.877Z,98545.88
2022-11-05T22:45:06.896Z,98547.22
2022-11-05T22:47:34.898Z,98540.81
2022-11-05T22:50:02.962Z,98540.78
2022-11-05T22:52:31.028Z,98549.44
2022-11-05T22:55:02.636Z,98544.41
2022-11-05T22:57:30.668Z,98550.47
2022-11-05T22:59:58.584Z,98548.75
2022-11-05T23:02:26.835Z,98554.13
2022-11-05T23:04:54.919Z,98558.69
2022-11-05T23:07:40.624Z,98552.91
2022-11-05T23:10:27.816Z,98556.72
2022-11-05T23:12:55.976Z,98549.63
2022-11-05T23:15:41.556Z,98551.44
2022-11-05T23:18:28.033Z,98548.72
2022-11-05T23:21:13.528Z,98556.41
2022-11-05T23:23:59.144Z,98560.72
2022-11-05T23:26:45.946Z,98557.88
2022-11-05T23:29:13.990Z,98562.97
2022-11-05T23:31:59.144Z,98559.66
2022-11-05T23:34:27.329Z,98558.88
2022-11-05T23:37:12.560Z,98565.28
2022-11-05T23:39:42.894Z,98563.97
2022-11-05T23:42:30.657Z,98556.00
2022-11-05T23:45:16.419Z,98555.69
2022-11-05T23:48:02.005Z,98563.28
2022-11-05T23:50:35.434Z,98553.00
2022-11-05T23:53:06.680Z,98550.63
2022-11-05T23:55:34.668Z,98549.84
2022-11-05T23:58:04.212Z,98550.75
